sensor_id;sensor_type;location;lat;lon;timestamp;pressure;altitude;pressure_sealevel;temperature;humidity
69855;BME280;57146;48.140;16.304;2024-01-27T00:00:02;100331.31;;;6.22;61.78
69855;BME280;57146;48.140;16.304;2024-01-27T00:02:34;100328.97;;;6.20;62.04
69855;BME280;57146;48.140;16.304;2024-01-27T00:05:02;100314.53;;;6.18;62.03
69855;BME280;57146;48.140;16.304;2024-01-27T00:07:29;100325.25;;;6.16;63.30
69855;BME280;57146;48.140;16.304;2024-01-27T00:09:57;100332.53;;;6.14;62.01
69855;BME280;57146;48.140;16.304;2024-01-27T00:12:24;100332.50;;;6.09;62.26
69855;BME280;57146;48.140;16.304;2024-01-27T00:14:51;100335.09;;;6.09;62.17
69855;BME280;57146;48.140;16.304;2024-01-27T00:17:19;100327.19;;;6.04;62.77
69855;BME280;57146;48.140;16.304;2024-01-27T00:19:46;100332.66;;;6.03;62.36
69855;BME280;57146;48.140;16.304;2024-01-27T00:22:13;100339.72;;;6.02;62.84
69855;BME280;57146;48.140;16.304;2024-01-27T00:24:40;100326.66;;;6.02;61.62
69855;BME280;57146;48.140;16.304;2024-01-27T00:27:07;100326.34;;;5.98;62.18
69855;BME280;57146;48.140;16.304;2024-01-27T00:29:34;100325.06;;;6.01;61.54
69855;BME280;57146;48.140;16.304;2024-01-27T00:32:02;100326.88;;;6.00;61.37
69855;BME280;57146;48.140;16.304;2024-01-27T00:34:29;100329.56;;;6.06;61.07
69855;BME280;57146;48.140;16.304;2024-01-27T00:36:56;100347.09;;;6.05;61.42
69855;BME280;57146;48.140;16.304;2024-01-27T00:39:23;100353.09;;;6.06;61.71
69855;BME280;57146;48.140;16.304;2024-01-27T00:41:51;100384.69;;;6.04;62.28
69855;BME280;57146;48.140;16.304;2024-01-27T00:44:18;100385.25;;;6.06;62.72
69855;BME280;57146;48.140;16.304;2024-01-27T00:46:45;100368.31;;;6.09;63.23
69855;BME280;57146;48.140;16.304;2024-01-27T00:49:12;100374.00;;;6.06;64.25
69855;BME280;57146;48.140;16.304;2024-01-27T00:51:40;100362.94;;;5.98;64.53
69855;BME280;57146;48.140;16.304;2024-01-27T00:54:07;100378.63;;;5.98;64.07
69855;BME280;57146;48.140;16.304;2024-01-27T00:56:34;100381.78;;;6.00;63.73
69855;BME280;57146;48.140;16.304;2024-01-27T00:59:01;100384.88;;;5.97;65.13
69855;BME280;57146;48.140;16.304;2024-01-27T01:01:28;100378.84;;;5.97;65.83
69855;BME280;57146;48.140;16.304;2024-01-27T01:03:55;100390.81;;;5.93;66.34
69855;BME280;57146;48.140;16.304;2024-01-27T01:06:23;100381.06;;;5.88;65.85
69855;BME280;57146;48.140;16.304;2024-01-27T01:08:50;100389.13;;;5.87;65.57
69855;BME280;57146;48.140;16.304;2024-01-27T01:11:17;100392.47;;;5.82;66.03
69855;BME280;57146;48.140;16.304;2024-01-27T01:13:58;100387.72;;;5.79;66.71
69855;BME280;57146;48.140;16.304;2024-01-27T01:16:25;100394.56;;;5.80;66.28
69855;BME280;57146;48.140;16.304;2024-01-27T01:18:52;100391.13;;;5.80;65.53
69855;BME280;57146;48.140;16.304;2024-01-27T01:21:19;100389.31;;;5.80;66.32
69855;BME280;57146;48.140;16.304;2024-01-27T01:23:46;100394.78;;;5.79;65.98
69855;BME280;57146;48.140;16.304;2024-01-27T01:26:13;100398.97;;;5.80;66.23
69855;BME280;57146;48.140;16.304;2024-01-27T01:28:40;100407.53;;;5.75;66.47
69855;BME280;57146;48.140;16.304;2024-01-27T01:31:07;100406.81;;;5.80;65.99
69855;BME280;57146;48.140;16.304;2024-01-27T01:33:33;100406.59;;;5.81;65.66
69855;BME280;57146;48.140;16.304;2024-01-27T01:36:00;100409.41;;;5.80;66.07
69855;BME280;57146;48.140;16.304;2024-01-27T01:38:27;100413.53;;;5.75;65.87
69855;BME280;57146;48.140;16.304;2024-01-27T01:40:54;100418.22;;;5.73;66.14
69855;BME280;57146;48.140;16.304;2024-01-27T01:43:21;100417.97;;;5.75;66.05
69855;BME280;57146;48.140;16.304;2024-01-27T01:45:48;100432.63;;;5.76;65.64
69855;BME280;57146;48.140;16.304;2024-01-27T01:48:15;100416.41;;;5.74;65.84
69855;BME280;57146;48.140;16.304;2024-01-27T01:50:42;100430.50;;;5.73;65.88
69855;BME280;57146;48.140;16.304;2024-01-27T01:53:09;100423.16;;;5.70;65.94
69855;BME280;57146;48.140;16.304;2024-01-27T01:55:36;100437.22;;;5.69;65.74
69855;BME280;57146;48.140;16.304;2024-01-27T01:58:03;100435.88;;;5.66;66.46
69855;BME280;57146;48.140;16.304;2024-01-27T02:00:31;100442.38;;;5.64;66.20
69855;BME280;57146;48.140;16.304;2024-01-27T02:02:59;100438.25;;;5.68;66.64
69855;BME280;57146;48.140;16.304;2024-01-27T02:05:26;100417.50;;;5.61;66.92
69855;BME280;57146;48.140;16.304;2024-01-27T02:07:53;100439.69;;;5.59;66.84
69855;BME280;57146;48.140;16.304;2024-01-27T02:10:21;100432.09;;;5.57;67.16
69855;BME280;57146;48.140;16.304;2024-01-27T02:12:51;100426.31;;;5.55;67.22
69855;BME280;57146;48.140;16.304;2024-01-27T02:15:18;100435.41;;;5.52;67.13
69855;BME280;57146;48.140;16.304;2024-01-27T02:17:45;100440.06;;;5.50;67.15
69855;BME280;57146;48.140;16.304;2024-01-27T02:20:12;100432.47;;;5.49;66.72
69855;BME280;57146;48.140;16.304;2024-01-27T02:22:39;100447.84;;;5.45;67.56
69855;BME280;57146;48.140;16.304;2024-01-27T02:25:06;100440.00;;;5.45;66.75
69855;BME280;57146;48.140;16.304;2024-01-27T02:27:33;100454.09;;;5.44;66.81
69855;BME280;57146;48.140;16.304;2024-01-27T02:29:59;100449.66;;;5.45;66.86
69855;BME280;57146;48.140;16.304;2024-01-27T02:32:27;100458.81;;;5.47;65.56
69855;BME280;57146;48.140;16.304;2024-01-27T02:34:53;100455.66;;;5.45;66.58
69855;BME280;57146;48.140;16.304;2024-01-27T02:37:20;100458.75;;;5.42;65.43
69855;BME280;57146;48.140;16.304;2024-01-27T02:39:47;100467.63;;;5.41;65.93
69855;BME280;57146;48.140;16.304;2024-01-27T02:42:14;100484.88;;;5.42;66.22
69855;BME280;57146;48.140;16.304;2024-01-27T02:44:41;100480.91;;;5.40;65.93
69855;BME280;57146;48.140;16.304;2024-01-27T02:47:08;100483.19;;;5.36;65.52
69855;BME280;57146;48.140;16.304;2024-01-27T02:49:35;100492.06;;;5.35;65.80
69855;BME280;57146;48.140;16.304;2024-01-27T02:52:02;100490.47;;;5.34;66.29
69855;BME280;57146;48.140;16.304;2024-01-27T02:54:29;100503.66;;;5.27;66.07
69855;BME280;57146;48.140;16.304;2024-01-27T02:56:56;100500.28;;;5.27;66.22
69855;BME280;57146;48.140;16.304;2024-01-27T02:59:23;100487.91;;;5.22;66.46
69855;BME280;57146;48.140;16.304;2024-01-27T03:01:50;100504.59;;;5.21;66.92
69855;BME280;57146;48.140;16.304;2024-01-27T03:04:17;100511.84;;;5.19;67.39
69855;BME280;57146;48.140;16.304;2024-01-27T03:06:44;100510.41;;;5.12;68.12
69855;BME280;57146;48.140;16.304;2024-01-27T03:09:11;100519.03;;;5.12;68.32
69855;BME280;57146;48.140;16.304;2024-01-27T03:11:38;100521.66;;;5.12;68.45
69855;BME280;57146;48.140;16.304;2024-01-27T03:14:05;100535.19;;;5.09;68.93
69855;BME280;57146;48.140;16.304;2024-01-27T03:16:32;100522.81;;;5.04;69.60
69855;BME280;57146;48.140;16.304;2024-01-27T03:18:59;100524.53;;;4.99;70.11
69855;BME280;57146;48.140;16.304;2024-01-27T03:21:27;100531.00;;;4.96;70.10
69855;BME280;57146;48.140;16.304;2024-01-27T03:23:54;100537.03;;;4.97;70.33
69855;BME280;57146;48.140;16.304;2024-01-27T03:26:21;100536.59;;;4.88;71.16
69855;BME280;57146;48.140;16.304;2024-01-27T03:28:48;100539.88;;;4.84;71.52
69855;BME280;57146;48.140;16.304;2024-01-27T03:31:15;100542.72;;;4.82;71.57
69855;BME280;57146;48.140;16.304;2024-01-27T03:33:42;100532.28;;;4.82;71.23
69855;BME280;57146;48.140;16.304;2024-01-27T03:36:10;100538.53;;;4.81;71.18
69855;BME280;57146;48.140;16.304;2024-01-27T03:38:38;100551.59;;;4.81;70.73
69855;BME280;57146;48.140;16.304;2024-01-27T03:41:06;100559.41;;;4.81;70.91
69855;BME280;57146;48.140;16.304;2024-01-27T03:43:34;100571.09;;;4.78;71.15
69855;BME280;57146;48.140;16.304;2024-01-27T03:46:01;100542.16;;;4.80;71.85
69855;BME280;57146;48.140;16.304;2024-01-27T03:48:28;100564.50;;;4.76;71.53
69855;BME280;57146;48.140;16.304;2024-01-27T03:50:55;100572.00;;;4.72;71.36
69855;BME280;57146;48.140;16.304;2024-01-27T03:53:22;100581.09;;;4.70;71.57
69855;BME280;57146;48.140;16.304;2024-01-27T03:55:49;100568.28;;;4.68;71.04
69855;BME280;57146;48.140;16.304;2024-01-27T03:58:16;100579.50;;;4.69;71.19
69855;BME280;57146;48.140;16.304;2024-01-27T04:00:43;100579.72;;;4.67;71.34
69855;BME280;57146;48.140;16.304;2024-01-27T04:03:11;100584.59;;;4.64;71.47
69855;BME280;57146;48.140;16.304;2024-01-27T04:05:38;100584.03;;;4.62;71.16
69855;BME280;57146;48.140;16.304;2024-01-27T04:08:06;100603.31;;;4.61;71.50
69855;BME280;57146;48.140;16.304;2024-01-27T04:10:33;100597.31;;;4.60;71.00
69855;BME280;57146;48.140;16.304;2024-01-27T04:13:00;100601.41;;;4.56;70.81
69855;BME280;57146;48.140;16.304;2024-01-27T04:15:26;100601.59;;;4.54;71.13
69855;BME280;57146;48.140;16.304;2024-01-27T04:17:54;100588.56;;;4.54;70.88
69855;BME280;57146;48.140;16.304;2024-01-27T04:20:22;100595.06;;;4.52;70.94
69855;BME280;57146;48.140;16.304;2024-01-27T04:22:49;100603.09;;;4.50;70.67
69855;BME280;57146;48.140;16.304;2024-01-27T04:25:16;100608.31;;;4.50;71.16
69855;BME280;57146;48.140;16.304;2024-01-27T04:27:43;100607.16;;;4.46;71.52
69855;BME280;57146;48.140;16.304;2024-01-27T04:30:11;100599.94;;;4.48;71.20
69855;BME280;57146;48.140;16.304;2024-01-27T04:32:38;100596.41;;;4.43;71.45
69855;BME280;57146;48.140;16.304;2024-01-27T04:35:09;100608.41;;;4.44;71.38
69855;BME280;57146;48.140;16.304;2024-01-27T04:37:37;100609.88;;;4.40;72.18
69855;BME280;57146;48.140;16.304;2024-01-27T04:40:04;100606.94;;;4.36;71.44
69855;BME280;57146;48.140;16.304;2024-01-27T04:42:37;100611.59;;;4.34;71.56
69855;BME280;57146;48.140;16.304;2024-01-27T04:45:06;100619.19;;;4.36;71.88
69855;BME280;57146;48.140;16.304;2024-01-27T04:47:33;100624.84;;;4.32;71.43
69855;BME280;57146;48.140;16.304;2024-01-27T04:50:00;100606.38;;;4.34;71.71
69855;BME280;57146;48.140;16.304;2024-01-27T04:52:27;100612.25;;;4.29;71.53
69855;BME280;57146;48.140;16.304;2024-01-27T04:54:54;100632.09;;;4.30;71.92
69855;BME280;57146;48.140;16.304;2024-01-27T04:57:21;100635.38;;;4.26;71.70
69855;BME280;57146;48.140;16.304;2024-01-27T04:59:48;100627.78;;;4.24;71.41
69855;BME280;57146;48.140;16.304;2024-01-27T05:02:15;100630.59;;;4.23;71.13
69855;BME280;57146;48.140;16.304;2024-01-27T05:04:42;100648.28;;;4.21;70.71
69855;BME280;57146;48.140;16.304;2024-01-27T05:07:09;100652.72;;;4.20;71.44
69855;BME280;57146;48.140;16.304;2024-01-27T05:09:36;100639.88;;;4.19;70.65
69855;BME280;57146;48.140;16.304;2024-01-27T05:12:04;100648.28;;;4.21;71.25
69855;BME280;57146;48.140;16.304;2024-01-27T05:14:31;100661.19;;;4.16;70.72
69855;BME280;57146;48.140;16.304;2024-01-27T05:16:57;100664.03;;;4.14;70.52
69855;BME280;57146;48.140;16.304;2024-01-27T05:19:24;100654.38;;;4.15;70.45
69855;BME280;57146;48.140;16.304;2024-01-27T05:21:51;100649.16;;;4.15;70.61
69855;BME280;57146;48.140;16.304;2024-01-27T05:24:18;100665.94;;;4.19;69.82
69855;BME280;57146;48.140;16.304;2024-01-27T05:26:45;100655.53;;;4.19;69.98
69855;BME280;57146;48.140;16.304;2024-01-27T05:29:12;100654.97;;;4.17;70.11
69855;BME280;57146;48.140;16.304;2024-01-27T05:31:38;100654.16;;;4.16;70.45
69855;BME280;57146;48.140;16.304;2024-01-27T05:34:05;100660.63;;;4.14;70.73
69855;BME280;57146;48.140;16.304;2024-01-27T05:36:32;100670.81;;;4.15;70.49
69855;BME280;57146;48.140;16.304;2024-01-27T05:38:59;100682.25;;;4.14;69.65
69855;BME280;57146;48.140;16.304;2024-01-27T05:41:27;100676.91;;;4.09;70.94
69855;BME280;57146;48.140;16.304;2024-01-27T05:43:54;100683.72;;;4.10;69.93
69855;BME280;57146;48.140;16.304;2024-01-27T05:46:20;100692.09;;;4.12;69.76
69855;BME280;57146;48.140;16.304;2024-01-27T05:48:47;100689.94;;;4.09;69.80
69855;BME280;57146;48.140;16.304;2024-01-27T05:51:14;100698.78;;;4.08;70.20
69855;BME280;57146;48.140;16.304;2024-01-27T05:53:41;100714.06;;;4.04;69.79
69855;BME280;57146;48.140;16.304;2024-01-27T05:56:08;100705.44;;;4.04;70.08
69855;BME280;57146;48.140;16.304;2024-01-27T05:58:35;100719.72;;;4.01;70.24
69855;BME280;57146;48.140;16.304;2024-01-27T06:01:02;100728.78;;;3.99;69.34
69855;BME280;57146;48.140;16.304;2024-01-27T06:03:29;100727.53;;;4.01;69.98
69855;BME280;57146;48.140;16.304;2024-01-27T06:05:56;100724.91;;;4.01;69.90
69855;BME280;57146;48.140;16.304;2024-01-27T06:08:23;100732.72;;;4.01;69.43
69855;BME280;57146;48.140;16.304;2024-01-27T06:10:50;100723.69;;;4.04;68.74
69855;BME280;57146;48.140;16.304;2024-01-27T06:13:17;100721.09;;;4.04;68.54
69855;BME280;57146;48.140;16.304;2024-01-27T06:15:44;100731.06;;;4.07;68.57
69855;BME280;57146;48.140;16.304;2024-01-27T06:18:11;100722.66;;;4.05;69.44
69855;BME280;57146;48.140;16.304;2024-01-27T06:20:38;100733.53;;;4.02;69.55
69855;BME280;57146;48.140;16.304;2024-01-27T06:23:05;100743.16;;;4.01;69.24
69855;BME280;57146;48.140;16.304;2024-01-27T06:25:32;100726.53;;;4.02;68.87
69855;BME280;57146;48.140;16.304;2024-01-27T06:27:59;100727.88;;;4.05;68.58
69855;BME280;57146;48.140;16.304;2024-01-27T06:30:26;100729.94;;;4.03;68.92
69855;BME280;57146;48.140;16.304;2024-01-27T06:32:53;100710.06;;;4.02;68.77
69855;BME280;57146;48.140;16.304;2024-01-27T06:35:20;100721.53;;;4.01;68.15
69855;BME280;57146;48.140;16.304;2024-01-27T06:37:47;100719.50;;;4.03;68.16
69855;BME280;57146;48.140;16.304;2024-01-27T06:40:14;100717.53;;;3.98;67.86
69855;BME280;57146;48.140;16.304;2024-01-27T06:42:41;100709.50;;;4.00;67.38
69855;BME280;57146;48.140;16.304;2024-01-27T06:45:08;100704.06;;;4.01;66.23
69855;BME280;57146;48.140;16.304;2024-01-27T06:47:35;100711.09;;;4.01;67.78
69855;BME280;57146;48.140;16.304;2024-01-27T06:50:02;100724.72;;;4.03;67.09
69855;BME280;57146;48.140;16.304;2024-01-27T06:52:29;100725.50;;;4.03;66.97
69855;BME280;57146;48.140;16.304;2024-01-27T06:54:56;100724.47;;;4.04;67.01
69855;BME280;57146;48.140;16.304;2024-01-27T06:57:23;100723.91;;;4.02;67.31
69855;BME280;57146;48.140;16.304;2024-01-27T06:59:52;100726.28;;;4.04;67.55
69855;BME280;57146;48.140;16.304;2024-01-27T07:02:25;100717.44;;;4.05;67.66
69855;BME280;57146;48.140;16.304;2024-01-27T07:04:52;100719.06;;;4.06;66.67
69855;BME280;57146;48.140;16.304;2024-01-27T07:07:23;100736.63;;;4.11;67.38
69855;BME280;57146;48.140;16.304;2024-01-27T07:09:52;100741.63;;;4.12;66.87
69855;BME280;57146;48.140;16.304;2024-01-27T07:12:19;100725.78;;;4.14;66.50
69855;BME280;57146;48.140;16.304;2024-01-27T07:14:47;100729.16;;;4.14;66.77
69855;BME280;57146;48.140;16.304;2024-01-27T07:17:14;100730.56;;;4.17;65.86
69855;BME280;57146;48.140;16.304;2024-01-27T07:19:41;100728.28;;;4.20;65.76
69855;BME280;57146;48.140;16.304;2024-01-27T07:22:08;100733.50;;;4.20;65.92
69855;BME280;57146;48.140;16.304;2024-01-27T07:24:35;100736.22;;;4.25;65.40
69855;BME280;57146;48.140;16.304;2024-01-27T07:27:02;100733.19;;;4.28;65.53
69855;BME280;57146;48.140;16.304;2024-01-27T07:29:29;100716.53;;;4.29;66.16
69855;BME280;57146;48.140;16.304;2024-01-27T07:31:56;100722.31;;;4.31;65.70
69855;BME280;57146;48.140;16.304;2024-01-27T07:34:23;100730.69;;;4.33;66.05
69855;BME280;57146;48.140;16.304;2024-01-27T07:36:51;100716.88;;;4.33;66.29
69855;BME280;57146;48.140;16.304;2024-01-27T07:39:17;100727.75;;;4.30;66.28
69855;BME280;57146;48.140;16.304;2024-01-27T07:41:44;100731.97;;;4.31;66.64
69855;BME280;57146;48.140;16.304;2024-01-27T07:44:14;100723.34;;;4.30;66.62
69855;BME280;57146;48.140;16.304;2024-01-27T07:46:41;100726.31;;;4.34;67.15
69855;BME280;57146;48.140;16.304;2024-01-27T07:49:09;100717.91;;;4.32;66.21
69855;BME280;57146;48.140;16.304;2024-01-27T07:51:36;100720.41;;;4.39;67.03
69855;BME280;57146;48.140;16.304;2024-01-27T07:54:03;100723.22;;;4.37;66.43
69855;BME280;57146;48.140;16.304;2024-01-27T07:56:30;100721.09;;;4.34;66.02
69855;BME280;57146;48.140;16.304;2024-01-27T07:58:56;100722.66;;;4.35;65.43
69855;BME280;57146;48.140;16.304;2024-01-27T08:01:23;100736.25;;;4.37;65.47
69855;BME280;57146;48.140;16.304;2024-01-27T08:03:50;100744.91;;;4.38;64.76
69855;BME280;57146;48.140;16.304;2024-01-27T08:06:21;100748.06;;;4.40;64.83
69855;BME280;57146;48.140;16.304;2024-01-27T08:08:48;100740.16;;;4.46;64.70
69855;BME280;57146;48.140;16.304;2024-01-27T08:11:15;100741.19;;;4.45;64.88
69855;BME280;57146;48.140;16.304;2024-01-27T08:13:42;100747.88;;;4.53;65.46
69855;BME280;57146;48.140;16.304;2024-01-27T08:16:09;100765.56;;;4.51;64.53
69855;BME280;57146;48.140;16.304;2024-01-27T08:18:36;100751.63;;;4.57;65.22
69855;BME280;57146;48.140;16.304;2024-01-27T08:21:04;100756.84;;;4.57;64.19
69855;BME280;57146;48.140;16.304;2024-01-27T08:23:31;100745.97;;;4.60;64.22
69855;BME280;57146;48.140;16.304;2024-01-27T08:25:58;100732.38;;;4.70;65.50
69855;BME280;57146;48.140;16.304;2024-01-27T08:28:25;100772.75;;;4.67;64.43
69855;BME280;57146;48.140;16.304;2024-01-27T08:30:52;100755.88;;;4.70;63.72
69855;BME280;57146;48.140;16.304;2024-01-27T08:33:19;100758.00;;;4.73;63.31
69855;BME280;57146;48.140;16.304;2024-01-27T08:35:47;100747.13;;;4.76;62.99
69855;BME280;57146;48.140;16.304;2024-01-27T08:38:14;100742.59;;;4.83;62.81
69855;BME280;57146;48.140;16.304;2024-01-27T08:40:41;100751.00;;;4.85;62.53
69855;BME280;57146;48.140;16.304;2024-01-27T08:43:08;100759.06;;;4.95;63.05
69855;BME280;57146;48.140;16.304;2024-01-27T08:45:37;100751.44;;;4.94;62.42
69855;BME280;57146;48.140;16.304;2024-01-27T08:48:05;100758.72;;;4.92;61.84
69855;BME280;57146;48.140;16.304;2024-01-27T08:50:32;100755.19;;;4.98;61.94
69855;BME280;57146;48.140;16.304;2024-01-27T08:52:59;100755.69;;;4.95;62.53
69855;BME280;57146;48.140;16.304;2024-01-27T08:55:26;100735.44;;;4.90;61.69
69855;BME280;57146;48.140;16.304;2024-01-27T08:57:52;100739.00;;;4.96;61.93
69855;BME280;57146;48.140;16.304;2024-01-27T09:00:19;100747.06;;;5.06;63.13
69855;BME280;57146;48.140;16.304;2024-01-27T09:02:46;100755.34;;;5.03;62.69
69855;BME280;57146;48.140;16.304;2024-01-27T09:05:13;100748.19;;;4.98;62.02
69855;BME280;57146;48.140;16.304;2024-01-27T09:07:41;100754.53;;;5.02;63.01
69855;BME280;57146;48.140;16.304;2024-01-27T09:10:08;100777.00;;;5.03;61.72
69855;BME280;57146;48.140;16.304;2024-01-27T09:12:35;100767.34;;;5.04;61.72
69855;BME280;57146;48.140;16.304;2024-01-27T09:15:03;100763.16;;;5.03;61.53
69855;BME280;57146;48.140;16.304;2024-01-27T09:17:30;100771.19;;;5.01;62.02
69855;BME280;57146;48.140;16.304;2024-01-27T09:19:56;100778.72;;;5.10;62.61
69855;BME280;57146;48.140;16.304;2024-01-27T09:22:24;100770.88;;;5.21;61.56
69855;BME280;57146;48.140;16.304;2024-01-27T09:24:51;100782.81;;;5.17;60.72
69855;BME280;57146;48.140;16.304;2024-01-27T09:27:18;100787.78;;;5.19;61.43
69855;BME280;57146;48.140;16.304;2024-01-27T09:29:46;100782.13;;;5.10;61.04
69855;BME280;57146;48.140;16.304;2024-01-27T09:32:13;100774.53;;;5.20;61.20
69855;BME280;57146;48.140;16.304;2024-01-27T09:34:40;100793.59;;;5.21;61.21
69855;BME280;57146;48.140;16.304;2024-01-27T09:37:07;100762.59;;;5.36;60.33
69855;BME280;57146;48.140;16.304;2024-01-27T09:39:34;100799.38;;;5.35;60.31
69855;BME280;57146;48.140;16.304;2024-01-27T09:42:05;100783.03;;;5.39;60.50
69855;BME280;57146;48.140;16.304;2024-01-27T09:44:35;100792.78;;;5.32;60.09
69855;BME280;57146;48.140;16.304;2024-01-27T09:47:03;100774.16;;;5.40;60.05
69855;BME280;57146;48.140;16.304;2024-01-27T09:49:31;100785.53;;;5.46;59.99
69855;BME280;57146;48.140;16.304;2024-01-27T09:51:59;100781.91;;;5.35;59.68
69855;BME280;57146;48.140;16.304;2024-01-27T09:54:26;100775.75;;;5.29;59.04
69855;BME280;57146;48.140;16.304;2024-01-27T09:56:54;100774.06;;;5.23;58.36
69855;BME280;57146;48.140;16.304;2024-01-27T09:59:23;100770.09;;;5.33;58.78
69855;BME280;57146;48.140;16.304;2024-01-27T10:01:50;100767.16;;;5.41;59.45
69855;BME280;57146;48.140;16.304;2024-01-27T10:04:19;100758.63;;;5.45;58.94
69855;BME280;57146;48.140;16.304;2024-01-27T10:06:48;100767.94;;;5.41;57.81
69855;BME280;57146;48.140;16.304;2024-01-27T10:09:16;100762.59;;;5.48;58.16
69855;BME280;57146;48.140;16.304;2024-01-27T10:11:46;100767.81;;;5.48;57.62
69855;BME280;57146;48.140;16.304;2024-01-27T10:14:13;100761.09;;;5.52;57.87
69855;BME280;57146;48.140;16.304;2024-01-27T10:16:44;100756.78;;;5.58;58.65
69855;BME280;57146;48.140;16.304;2024-01-27T10:19:14;100771.78;;;5.50;57.45
69855;BME280;57146;48.140;16.304;2024-01-27T10:21:41;100775.63;;;5.60;57.70
69855;BME280;57146;48.140;16.304;2024-01-27T10:24:08;100755.41;;;5.67;58.47
69855;BME280;57146;48.140;16.304;2024-01-27T10:26:36;100763.25;;;5.67;56.98
69855;BME280;57146;48.140;16.304;2024-01-27T10:29:02;100769.56;;;5.83;58.08
69855;BME280;57146;48.140;16.304;2024-01-27T10:31:34;100765.50;;;5.75;57.02
69855;BME280;57146;48.140;16.304;2024-01-27T10:34:01;100782.06;;;5.81;57.61
69855;BME280;57146;48.140;16.304;2024-01-27T10:36:42;100791.94;;;5.79;57.04
69855;BME280;57146;48.140;16.304;2024-01-27T10:39:22;100805.59;;;5.69;56.91
69855;BME280;57146;48.140;16.304;2024-01-27T10:41:50;100828.09;;;5.70;57.13
69855;BME280;57146;48.140;16.304;2024-01-27T10:44:18;100824.34;;;5.78;57.94
69855;BME280;57146;48.140;16.304;2024-01-27T10:46:47;100819.88;;;5.90;58.33
69855;BME280;57146;48.140;16.304;2024-01-27T10:49:16;100830.25;;;5.85;57.31
69855;BME280;57146;48.140;16.304;2024-01-27T10:51:55;100804.44;;;5.88;57.46
69855;BME280;57146;48.140;16.304;2024-01-27T10:54:25;100816.03;;;5.81;56.79
69855;BME280;57146;48.140;16.304;2024-01-27T10:56:55;100824.22;;;5.96;58.69
69855;BME280;57146;48.140;16.304;2024-01-27T10:59:22;100839.13;;;5.95;57.34
69855;BME280;57146;48.140;16.304;2024-01-27T11:01:52;100816.84;;;5.93;57.50
69855;BME280;57146;48.140;16.304;2024-01-27T11:04:20;100816.25;;;6.03;59.14
69855;BME280;57146;48.140;16.304;2024-01-27T11:06:48;100821.56;;;6.08;58.23
69855;BME280;57146;48.140;16.304;2024-01-27T11:09:18;100817.63;;;5.93;56.60
69855;BME280;57146;48.140;16.304;2024-01-27T11:11:46;100825.00;;;5.96;57.25
69855;BME280;57146;48.140;16.304;2024-01-27T11:14:14;100803.47;;;6.18;58.92
69855;BME280;57146;48.140;16.304;2024-01-27T11:16:41;100807.50;;;5.97;56.05
69855;BME280;57146;48.140;16.304;2024-01-27T11:19:08;100809.91;;;5.98;57.02
69855;BME280;57146;48.140;16.304;2024-01-27T11:21:35;100815.34;;;6.09;57.89
69855;BME280;57146;48.140;16.304;2024-01-27T11:24:14;100809.50;;;6.18;58.34
69855;BME280;57146;48.140;16.304;2024-01-27T11:26:42;100824.63;;;6.16;56.81
69855;BME280;57146;48.140;16.304;2024-01-27T11:29:10;100822.47;;;6.13;57.16
69855;BME280;57146;48.140;16.304;2024-01-27T11:31:40;100832.44;;;6.28;58.80
69855;BME280;57146;48.140;16.304;2024-01-27T11:34:10;100823.34;;;6.31;57.32
69855;BME280;57146;48.140;16.304;2024-01-27T11:36:38;100826.16;;;6.29;56.81
69855;BME280;57146;48.140;16.304;2024-01-27T11:39:05;100829.44;;;6.36;56.80
69855;BME280;57146;48.140;16.304;2024-01-27T11:41:49;100836.28;;;6.37;57.58
69855;BME280;57146;48.140;16.304;2024-01-27T11:44:16;100839.22;;;6.41;58.24
69855;BME280;57146;48.140;16.304;2024-01-27T11:46:44;100837.19;;;6.31;57.31
69855;BME280;57146;48.140;16.304;2024-01-27T11:49:15;100840.22;;;6.40;58.91
69855;BME280;57146;48.140;16.304;2024-01-27T11:51:44;100839.69;;;6.38;57.22
69855;BME280;57146;48.140;16.304;2024-01-27T11:54:11;100844.00;;;6.44;58.67
69855;BME280;57146;48.140;16.304;2024-01-27T11:56:38;100844.13;;;6.37;58.74
69855;BME280;57146;48.140;16.304;2024-01-27T11:59:05;100852.44;;;6.34;57.65
69855;BME280;57146;48.140;16.304;2024-01-27T12:01:32;100843.94;;;6.27;57.60
69855;BME280;57146;48.140;16.304;2024-01-27T12:03:59;100844.94;;;6.26;57.95
69855;BME280;57146;48.140;16.304;2024-01-27T12:06:25;100840.28;;;6.28;58.19
69855;BME280;57146;48.140;16.304;2024-01-27T12:08:54;100829.81;;;6.28;57.38
69855;BME280;57146;48.140;16.304;2024-01-27T12:11:21;100842.31;;;6.26;56.97
69855;BME280;57146;48.140;16.304;2024-01-27T12:13:52;100832.69;;;6.27;57.03
69855;BME280;57146;48.140;16.304;2024-01-27T12:16:21;100823.00;;;6.27;58.03
69855;BME280;57146;48.140;16.304;2024-01-27T12:18:52;100817.78;;;6.27;57.00
69855;BME280;57146;48.140;16.304;2024-01-27T12:21:19;100820.00;;;6.35;57.71
69855;BME280;57146;48.140;16.304;2024-01-27T12:23:55;100783.06;;;6.32;57.14
69855;BME280;57146;48.140;16.304;2024-01-27T12:26:26;100809.13;;;6.27;57.01
69855;BME280;57146;48.140;16.304;2024-01-27T12:28:54;100806.19;;;6.23;55.86
69855;BME280;57146;48.140;16.304;2024-01-27T12:31:25;100822.44;;;6.25;57.64
69855;BME280;57146;48.140;16.304;2024-01-27T12:33:53;100824.00;;;6.26;57.34
69855;BME280;57146;48.140;16.304;2024-01-27T12:36:22;100829.03;;;6.28;57.22
69855;BME280;57146;48.140;16.304;2024-01-27T12:39:00;100827.44;;;6.27;56.61
69855;BME280;57146;48.140;16.304;2024-01-27T12:41:52;100829.81;;;6.28;57.02
69855;BME280;57146;48.140;16.304;2024-01-27T12:44:19;100825.38;;;6.29;56.72
69855;BME280;57146;48.140;16.304;2024-01-27T12:46:46;100834.91;;;6.35;56.35
69855;BME280;57146;48.140;16.304;2024-01-27T12:49:13;100828.31;;;6.32;56.73
69855;BME280;57146;48.140;16.304;2024-01-27T12:51:40;100827.06;;;6.35;56.88